sensor_id;sensor_type;location;lat;lon;timestamp;P1;durP1;ratioP1;P2;durP2;ratioP2
29320;SDS011;16323;51.130;6.612;2023-05-16T00:00:44;1.02;;;0.75;;
29320;SDS011;16323;51.130;6.612;2023-05-16T00:03:11;1.80;;;0.70;;
29320;SDS011;16323;51.130;6.612;2023-05-16T00:05:38;1.38;;;0.77;;
29320;SDS011;16323;51.130;6.612;2023-05-16T00:08:06;2.03;;;0.90;;
29320;SDS011;16323;51.130;6.612;2023-05-16T00:10:33;0.88;;;0.60;;
29320;SDS011;16323;51.130;6.612;2023-05-16T00:13:00;1.00;;;0.60;;
29320;SDS011;16323;51.130;6.612;2023-05-16T00:15:27;1.45;;;0.65;;
29320;SDS011;16323;51.130;6.612;2023-05-16T00:17:54;0.98;;;0.55;;
29320;SDS011;16323;51.130;6.612;2023-05-16T00:20:23;0.85;;;0.60;;
29320;SDS011;16323;51.130;6.612;2023-05-16T00:22:50;1.55;;;0.77;;
29320;SDS011;16323;51.130;6.612;2023-05-16T00:25:18;0.88;;;0.50;;
29320;SDS011;16323;51.130;6.612;2023-05-16T00:27:45;0.75;;;0.40;;
29320;SDS011;16323;51.130;6.612;2023-05-16T00:30:12;1.52;;;0.60;;
29320;SDS011;16323;51.130;6.612;2023-05-16T00:32:39;1.00;;;0.55;;
29320;SDS011;16323;51.130;6.612;2023-05-16T00:35:06;1.05;;;0.65;;
29320;SDS011;16323;51.130;6.612;2023-05-16T00:37:34;1.55;;;0.55;;
29320;SDS011;16323;51.130;6.612;2023-05-16T00:40:02;1.10;;;0.60;;
29320;SDS011;16323;51.130;6.612;2023-05-16T00:42:30;0.88;;;0.60;;
29320;SDS011;16323;51.130;6.612;2023-05-16T00:44:57;0.75;;;0.52;;
29320;SDS011;16323;51.130;6.612;2023-05-16T00:47:25;1.95;;;0.40;;
29320;SDS011;16323;51.130;6.612;2023-05-16T00:49:52;0.82;;;0.50;;
29320;SDS011;16323;51.130;6.612;2023-05-16T00:52:20;1.15;;;0.45;;
29320;SDS011;16323;51.130;6.612;2023-05-16T00:54:47;1.15;;;0.70;;
29320;SDS011;16323;51.130;6.612;2023-05-16T00:57:16;0.98;;;0.55;;
29320;SDS011;16323;51.130;6.612;2023-05-16T00:59:44;1.25;;;0.50;;
29320;SDS011;16323;51.130;6.612;2023-05-16T01:02:13;0.80;;;0.50;;
29320;SDS011;16323;51.130;6.612;2023-05-16T01:04:44;1.00;;;0.57;;
29320;SDS011;16323;51.130;6.612;2023-05-16T01:07:18;2.28;;;0.57;;
29320;SDS011;16323;51.130;6.612;2023-05-16T01:09:53;0.40;;;0.32;;
29320;SDS011;16323;51.130;6.612;2023-05-16T01:12:30;1.40;;;0.40;;
29320;SDS011;16323;51.130;6.612;2023-05-16T01:15:06;0.70;;;0.50;;
29320;SDS011;16323;51.130;6.612;2023-05-16T01:17:44;1.98;;;0.47;;
29320;SDS011;16323;51.130;6.612;2023-05-16T01:20:24;1.38;;;0.60;;
29320;SDS011;16323;51.130;6.612;2023-05-16T01:26:24;1.08;;;0.50;;
29320;SDS011;16323;51.130;6.612;2023-05-16T01:29:07;2.30;;;0.77;;
29320;SDS011;16323;51.130;6.612;2023-05-16T01:31:34;0.85;;;0.40;;
29320;SDS011;16323;51.130;6.612;2023-05-16T01:34:03;0.63;;;0.35;;
29320;SDS011;16323;51.130;6.612;2023-05-16T01:36:35;1.00;;;0.60;;
29320;SDS011;16323;51.130;6.612;2023-05-16T01:39:11;0.60;;;0.45;;
29320;SDS011;16323;51.130;6.612;2023-05-16T01:41:51;2.30;;;0.60;;
29320;SDS011;16323;51.130;6.612;2023-05-16T01:44:34;2.75;;;0.55;;
29320;SDS011;16323;51.130;6.612;2023-05-16T01:47:11;1.65;;;0.70;;
29320;SDS011;16323;51.130;6.612;2023-05-16T11:36:04;4.30;;;0.90;;
29320;SDS011;16323;51.130;6.612;2023-05-16T11:38:32;2.20;;;0.70;;
29320;SDS011;16323;51.130;6.612;2023-05-16T11:41:02;4.93;;;0.80;;
29320;SDS011;16323;51.130;6.612;2023-05-16T11:43:35;3.08;;;0.75;;
29320;SDS011;16323;51.130;6.612;2023-05-16T11:46:03;1.42;;;0.55;;
29320;SDS011;16323;51.130;6.612;2023-05-16T11:48:30;2.50;;;0.80;;
29320;SDS011;16323;51.130;6.612;2023-05-16T11:50:57;1.88;;;0.60;;
29320;SDS011;16323;51.130;6.612;2023-05-16T11:53:25;1.15;;;0.60;;
29320;SDS011;16323;51.130;6.612;2023-05-16T11:55:53;1.30;;;0.40;;
29320;SDS011;16323;51.130;6.612;2023-05-16T11:58:20;2.40;;;0.68;;
29320;SDS011;16323;51.130;6.612;2023-05-16T12:00:47;2.53;;;0.65;;
29320;SDS011;16323;51.130;6.612;2023-05-16T12:03:16;2.38;;;0.77;;
29320;SDS011;16323;51.130;6.612;2023-05-16T12:05:53;1.75;;;0.45;;
29320;SDS011;16323;51.130;6.612;2023-05-16T12:08:22;1.40;;;0.40;;
29320;SDS011;16323;51.130;6.612;2023-05-16T12:10:50;5.32;;;0.60;;
29320;SDS011;16323;51.130;6.612;2023-05-16T12:13:19;2.20;;;0.50;;
29320;SDS011;16323;51.130;6.612;2023-05-16T12:15:47;2.05;;;0.70;;
29320;SDS011;16323;51.130;6.612;2023-05-16T12:18:16;1.13;;;0.40;;
29320;SDS011;16323;51.130;6.612;2023-05-16T12:20:45;0.95;;;0.50;;
29320;SDS011;16323;51.130;6.612;2023-05-16T12:23:12;2.35;;;0.57;;
29320;SDS011;16323;51.130;6.612;2023-05-16T12:25:44;1.48;;;0.47;;
29320;SDS011;16323;51.130;6.612;2023-05-16T12:28:14;0.93;;;0.50;;
29320;SDS011;16323;51.130;6.612;2023-05-16T12:30:42;5.07;;;0.75;;
29320;SDS011;16323;51.130;6.612;2023-05-16T12:33:12;2.60;;;0.55;;
29320;SDS011;16323;51.130;6.612;2023-05-16T12:35:40;1.85;;;0.60;;
29320;SDS011;16323;51.130;6.612;2023-05-16T12:38:08;4.43;;;0.60;;
29320;SDS011;16323;51.130;6.612;2023-05-16T12:40:37;1.63;;;0.52;;
29320;SDS011;16323;51.130;6.612;2023-05-16T12:43:11;2.55;;;0.60;;
29320;SDS011;16323;51.130;6.612;2023-05-16T12:45:40;1.45;;;0.60;;
29320;SDS011;16323;51.130;6.612;2023-05-16T12:48:11;3.05;;;0.60;;
29320;SDS011;16323;51.130;6.612;2023-05-16T12:50:38;1.70;;;0.55;;
29320;SDS011;16323;51.130;6.612;2023-05-16T12:53:09;1.27;;;0.52;;
29320;SDS011;16323;51.130;6.612;2023-05-16T12:55:38;1.50;;;0.68;;
29320;SDS011;16323;51.130;6.612;2023-05-16T12:58:05;2.03;;;0.70;;
29320;SDS011;16323;51.130;6.612;2023-05-16T13:00:32;2.60;;;0.68;;
29320;SDS011;16323;51.130;6.612;2023-05-16T13:03:01;1.23;;;0.47;;
29320;SDS011;16323;51.130;6.612;2023-05-16T13:05:29;2.40;;;1.23;;
29320;SDS011;16323;51.130;6.612;2023-05-16T13:07:56;1.08;;;0.63;;
29320;SDS011;16323;51.130;6.612;2023-05-16T13:10:22;1.75;;;0.60;;
29320;SDS011;16323;51.130;6.612;2023-05-16T13:12:50;2.08;;;0.52;;
29320;SDS011;16323;51.130;6.612;2023-05-16T13:15:17;2.22;;;0.55;;
29320;SDS011;16323;51.130;6.612;2023-05-16T13:17:44;0.73;;;0.30;;
29320;SDS011;16323;51.130;6.612;2023-05-16T13:20:13;2.83;;;0.73;;
29320;SDS011;16323;51.130;6.612;2023-05-16T13:22:41;2.05;;;0.70;;
29320;SDS011;16323;51.130;6.612;2023-05-16T13:25:09;1.52;;;0.45;;
29320;SDS011;16323;51.130;6.612;2023-05-16T13:27:37;0.95;;;0.50;;
29320;SDS011;16323;51.130;6.612;2023-05-16T13:30:04;1.42;;;0.52;;
29320;SDS011;16323;51.130;6.612;2023-05-16T13:32:31;1.17;;;0.57;;
29320;SDS011;16323;51.130;6.612;2023-05-16T13:34:58;2.22;;;0.60;;
29320;SDS011;16323;51.130;6.612;2023-05-16T13:37:26;1.23;;;0.60;;
29320;SDS011;16323;51.130;6.612;2023-05-16T13:39:53;0.88;;;0.50;;
29320;SDS011;16323;51.130;6.612;2023-05-16T13:42:20;1.15;;;0.35;;
29320;SDS011;16323;51.130;6.612;2023-05-16T13:44:47;0.85;;;0.60;;
29320;SDS011;16323;51.130;6.612;2023-05-16T13:47:14;0.95;;;0.32;;
29320;SDS011;16323;51.130;6.612;2023-05-16T13:49:41;0.75;;;0.40;;
29320;SDS011;16323;51.130;6.612;2023-05-16T13:52:07;1.27;;;0.50;;
29320;SDS011;16323;51.130;6.612;2023-05-16T13:54:45;1.20;;;0.40;;
29320;SDS011;16323;51.130;6.612;2023-05-16T13:57:12;0.68;;;0.50;;
29320;SDS011;16323;51.130;6.612;2023-05-16T13:59:39;1.27;;;0.47;;
29320;SDS011;16323;51.130;6.612;2023-05-16T14:02:05;3.75;;;0.82;;
29320;SDS011;16323;51.130;6.612;2023-05-16T14:04:32;0.73;;;0.30;;
29320;SDS011;16323;51.130;6.612;2023-05-16T14:06:59;1.67;;;0.68;;
29320;SDS011;16323;51.130;6.612;2023-05-16T14:09:26;1.60;;;0.52;;
29320;SDS011;16323;51.130;6.612;2023-05-16T14:11:54;1.95;;;0.40;;
29320;SDS011;16323;51.130;6.612;2023-05-16T14:14:21;1.05;;;0.32;;
29320;SDS011;16323;51.130;6.612;2023-05-16T14:16:48;2.00;;;0.50;;
29320;SDS011;16323;51.130;6.612;2023-05-16T14:19:14;1.88;;;0.57;;
29320;SDS011;16323;51.130;6.612;2023-05-16T14:21:41;1.15;;;0.55;;
29320;SDS011;16323;51.130;6.612;2023-05-16T14:24:08;1.67;;;0.68;;
29320;SDS011;16323;51.130;6.612;2023-05-16T14:26:35;1.23;;;0.40;;
29320;SDS011;16323;51.130;6.612;2023-05-16T14:29:07;1.48;;;0.60;;
29320;SDS011;16323;51.130;6.612;2023-05-16T14:31:34;1.15;;;0.47;;
29320;SDS011;16323;51.130;6.612;2023-05-16T14:34:03;2.40;;;0.50;;
29320;SDS011;16323;51.130;6.612;2023-05-16T14:36:30;1.15;;;0.50;;
29320;SDS011;16323;51.130;6.612;2023-05-16T14:39:00;0.50;;;0.40;;
29320;SDS011;16323;51.130;6.612;2023-05-16T14:41:28;2.28;;;0.50;;
29320;SDS011;16323;51.130;6.612;2023-05-16T14:43:56;0.95;;;0.40;;
29320;SDS011;16323;51.130;6.612;2023-05-16T14:46:25;2.47;;;0.47;;
29320;SDS011;16323;51.130;6.612;2023-05-16T14:48:55;2.15;;;0.47;;
29320;SDS011;16323;51.130;6.612;2023-05-16T14:51:24;0.70;;;0.38;;
29320;SDS011;16323;51.130;6.612;2023-05-16T14:53:53;1.38;;;0.43;;
29320;SDS011;16323;51.130;6.612;2023-05-16T14:56:23;0.75;;;0.40;;
29320;SDS011;16323;51.130;6.612;2023-05-16T14:58:52;1.00;;;0.50;;
29320;SDS011;16323;51.130;6.612;2023-05-16T15:01:21;0.90;;;0.50;;
29320;SDS011;16323;51.130;6.612;2023-05-16T15:03:54;0.68;;;0.38;;
29320;SDS011;16323;51.130;6.612;2023-05-16T15:06:24;2.05;;;0.63;;
29320;SDS011;16323;51.130;6.612;2023-05-16T15:08:52;0.45;;;0.40;;
29320;SDS011;16323;51.130;6.612;2023-05-16T15:11:22;0.70;;;0.50;;
29320;SDS011;16323;51.130;6.612;2023-05-16T15:13:51;1.50;;;0.73;;
29320;SDS011;16323;51.130;6.612;2023-05-16T15:16:21;2.15;;;0.57;;
29320;SDS011;16323;51.130;6.612;2023-05-16T15:18:52;1.77;;;0.50;;
29320;SDS011;16323;51.130;6.612;2023-05-16T15:21:22;1.67;;;0.43;;
29320;SDS011;16323;51.130;6.612;2023-05-16T15:23:52;1.35;;;0.50;;
29320;SDS011;16323;51.130;6.612;2023-05-16T15:26:22;1.15;;;0.60;;
29320;SDS011;16323;51.130;6.612;2023-05-16T15:28:51;1.55;;;0.50;;
29320;SDS011;16323;51.130;6.612;2023-05-16T15:31:19;1.10;;;0.43;;
29320;SDS011;16323;51.130;6.612;2023-05-16T15:33:47;0.85;;;0.45;;
29320;SDS011;16323;51.130;6.612;2023-05-16T15:36:20;0.82;;;0.40;;
29320;SDS011;16323;51.130;6.612;2023-05-16T15:38:48;0.47;;;0.40;;
29320;SDS011;16323;51.130;6.612;2023-05-16T15:41:16;0.68;;;0.32;;
29320;SDS011;16323;51.130;6.612;2023-05-16T15:43:46;1.95;;;0.60;;
29320;SDS011;16323;51.130;6.612;2023-05-16T15:46:15;0.52;;;0.30;;
29320;SDS011;16323;51.130;6.612;2023-05-16T15:48:42;0.38;;;0.30;;
29320;SDS011;16323;51.130;6.612;2023-05-16T15:51:12;1.50;;;0.60;;
29320;SDS011;16323;51.130;6.612;2023-05-16T15:53:44;1.98;;;0.75;;
29320;SDS011;16323;51.130;6.612;2023-05-16T15:56:14;2.47;;;0.68;;
29320;SDS011;16323;51.130;6.612;2023-05-16T15:58:43;2.25;;;0.50;;
29320;SDS011;16323;51.130;6.612;2023-05-16T16:01:13;2.10;;;0.60;;
29320;SDS011;16323;51.130;6.612;2023-05-16T16:03:42;1.17;;;0.50;;
29320;SDS011;16323;51.130;6.612;2023-05-16T16:06:11;1.30;;;0.50;;
29320;SDS011;16323;51.130;6.612;2023-05-16T16:08:40;3.00;;;0.57;;
29320;SDS011;16323;51.130;6.612;2023-05-16T16:11:11;1.77;;;0.40;;
29320;SDS011;16323;51.130;6.612;2023-05-16T16:13:39;1.02;;;0.43;;
29320;SDS011;16323;51.130;6.612;2023-05-16T16:16:06;3.08;;;0.60;;
29320;SDS011;16323;51.130;6.612;2023-05-16T16:18:36;2.30;;;0.82;;
29320;SDS011;16323;51.130;6.612;2023-05-16T16:21:05;1.13;;;0.57;;
29320;SDS011;16323;51.130;6.612;2023-05-16T16:23:34;0.88;;;0.40;;
29320;SDS011;16323;51.130;6.612;2023-05-16T16:26:01;0.52;;;0.40;;
29320;SDS011;16323;51.130;6.612;2023-05-16T16:28:35;0.47;;;0.38;;
29320;SDS011;16323;51.130;6.612;2023-05-16T16:31:02;1.90;;;0.50;;
29320;SDS011;16323;51.130;6.612;2023-05-16T16:33:31;0.80;;;0.60;;
29320;SDS011;16323;51.130;6.612;2023-05-16T16:36:00;1.30;;;0.63;;
29320;SDS011;16323;51.130;6.612;2023-05-16T16:38:28;2.38;;;0.90;;
29320;SDS011;16323;51.130;6.612;2023-05-16T16:40:55;1.10;;;0.70;;
29320;SDS011;16323;51.130;6.612;2023-05-16T16:43:23;2.53;;;0.80;;
29320;SDS011;16323;51.130;6.612;2023-05-16T16:45:56;2.05;;;0.75;;
29320;SDS011;16323;51.130;6.612;2023-05-16T16:48:25;1.70;;;0.77;;
29320;SDS011;16323;51.130;6.612;2023-05-16T16:50:52;6.28;;;1.10;;
29320;SDS011;16323;51.130;6.612;2023-05-16T16:53:20;8.05;;;1.63;;
29320;SDS011;16323;51.130;6.612;2023-05-16T16:55:47;5.45;;;0.98;;
29320;SDS011;16323;51.130;6.612;2023-05-16T16:58:14;8.73;;;1.02;;
29320;SDS011;16323;51.130;6.612;2023-05-16T17:00:40;2.92;;;0.93;;
29320;SDS011;16323;51.130;6.612;2023-05-16T17:03:09;2.05;;;0.93;;
29320;SDS011;16323;51.130;6.612;2023-05-16T17:05:36;1.80;;;0.77;;
29320;SDS011;16323;51.130;6.612;2023-05-16T17:08:03;3.30;;;1.08;;
29320;SDS011;16323;51.130;6.612;2023-05-16T17:10:30;2.45;;;1.40;;
29320;SDS011;16323;51.130;6.612;2023-05-16T17:12:57;4.63;;;2.45;;
29320;SDS011;16323;51.130;6.612;2023-05-16T17:15:31;5.25;;;3.55;;
29320;SDS011;16323;51.130;6.612;2023-05-16T17:17:57;5.38;;;4.10;;
29320;SDS011;16323;51.130;6.612;2023-05-16T17:20:25;6.13;;;4.50;;
29320;SDS011;16323;51.130;6.612;2023-05-16T17:22:52;6.93;;;4.93;;
29320;SDS011;16323;51.130;6.612;2023-05-16T17:25:19;5.72;;;4.22;;
29320;SDS011;16323;51.130;6.612;2023-05-16T17:27:46;6.20;;;4.47;;
29320;SDS011;16323;51.130;6.612;2023-05-16T17:30:13;6.05;;;4.40;;
29320;SDS011;16323;51.130;6.612;2023-05-16T17:32:40;7.70;;;5.28;;
29320;SDS011;16323;51.130;6.612;2023-05-16T17:35:07;6.93;;;5.53;;
29320;SDS011;16323;51.130;6.612;2023-05-16T17:37:35;7.22;;;5.18;;
29320;SDS011;16323;51.130;6.612;2023-05-16T17:40:02;6.05;;;4.10;;
29320;SDS011;16323;51.130;6.612;2023-05-16T17:42:30;6.70;;;4.57;;
29320;SDS011;16323;51.130;6.612;2023-05-16T17:44:56;7.03;;;4.53;;
29320;SDS011;16323;51.130;6.612;2023-05-16T17:47:27;5.75;;;3.75;;
29320;SDS011;16323;51.130;6.612;2023-05-16T17:49:54;4.45;;;3.10;;
29320;SDS011;16323;51.130;6.612;2023-05-16T17:52:21;5.18;;;3.38;;
29320;SDS011;16323;51.130;6.612;2023-05-16T17:54:49;5.18;;;3.30;;
29320;SDS011;16323;51.130;6.612;2023-05-16T17:57:16;4.63;;;2.60;;
29320;SDS011;16323;51.130;6.612;2023-05-16T17:59:43;4.30;;;2.25;;
29320;SDS011;16323;51.130;6.612;2023-05-16T18:02:10;2.88;;;1.92;;
29320;SDS011;16323;51.130;6.612;2023-05-16T18:04:39;4.10;;;1.85;;
29320;SDS011;16323;51.130;6.612;2023-05-16T18:07:06;2.33;;;1.60;;
29320;SDS011;16323;51.130;6.612;2023-05-16T18:09:33;2.33;;;1.67;;
29320;SDS011;16323;51.130;6.612;2023-05-16T18:12:01;2.80;;;1.77;;
29320;SDS011;16323;51.130;6.612;2023-05-16T18:14:28;2.90;;;1.45;;
29320;SDS011;16323;51.130;6.612;2023-05-16T18:16:54;2.85;;;1.30;;
29320;SDS011;16323;51.130;6.612;2023-05-16T18:19:21;2.15;;;1.40;;
29320;SDS011;16323;51.130;6.612;2023-05-16T18:21:48;1.77;;;1.05;;
29320;SDS011;16323;51.130;6.612;2023-05-16T18:24:14;3.85;;;1.33;;
29320;SDS011;16323;51.130;6.612;2023-05-16T18:26:41;2.13;;;1.23;;
29320;SDS011;16323;51.130;6.612;2023-05-16T18:29:11;2.38;;;1.33;;
29320;SDS011;16323;51.130;6.612;2023-05-16T18:31:38;2.10;;;1.30;;
29320;SDS011;16323;51.130;6.612;2023-05-16T18:34:06;3.05;;;1.38;;
29320;SDS011;16323;51.130;6.612;2023-05-16T18:36:33;3.25;;;1.60;;
29320;SDS011;16323;51.130;6.612;2023-05-16T18:39:00;3.58;;;1.52;;
29320;SDS011;16323;51.130;6.612;2023-05-16T18:41:26;3.47;;;1.83;;
29320;SDS011;16323;51.130;6.612;2023-05-16T18:43:53;4.38;;;1.77;;
29320;SDS011;16323;51.130;6.612;2023-05-16T18:46:21;3.83;;;1.52;;
29320;SDS011;16323;51.130;6.612;2023-05-16T18:48:48;2.20;;;1.50;;
29320;SDS011;16323;51.130;6.612;2023-05-16T18:51:15;3.00;;;1.40;;
29320;SDS011;16323;51.130;6.612;2023-05-16T18:53:42;4.35;;;1.60;;
29320;SDS011;16323;51.130;6.612;2023-05-16T18:56:08;4.00;;;1.60;;
29320;SDS011;16323;51.130;6.612;2023-05-16T18:58:35;2.40;;;1.42;;
29320;SDS011;16323;51.130;6.612;2023-05-16T19:01:02;2.05;;;1.20;;
29320;SDS011;16323;51.130;6.612;2023-05-16T19:03:30;2.95;;;1.33;;
29320;SDS011;16323;51.130;6.612;2023-05-16T19:05:57;5.95;;;1.73;;
29320;SDS011;16323;51.130;6.612;2023-05-16T19:08:24;3.45;;;1.30;;
29320;SDS011;16323;51.130;6.612;2023-05-16T19:10:51;3.00;;;1.60;;
29320;SDS011;16323;51.130;6.612;2023-05-16T19:13:18;3.33;;;1.45;;
29320;SDS011;16323;51.130;6.612;2023-05-16T19:15:45;2.88;;;1.40;;
29320;SDS011;16323;51.130;6.612;2023-05-16T19:18:12;3.70;;;1.33;;
29320;SDS011;16323;51.130;6.612;2023-05-16T19:20:40;3.97;;;1.52;;
29320;SDS011;16323;51.130;6.612;2023-05-16T19:23:07;6.45;;;1.45;;
29320;SDS011;16323;51.130;6.612;2023-05-16T19:25:34;3.63;;;1.08;;
29320;SDS011;16323;51.130;6.612;2023-05-16T19:28:00;1.70;;;1.05;;
29320;SDS011;16323;51.130;6.612;2023-05-16T19:30:27;2.85;;;1.30;;
29320;SDS011;16323;51.130;6.612;2023-05-16T19:32:54;5.05;;;1.27;;
29320;SDS011;16323;51.130;6.612;2023-05-16T19:35:21;2.90;;;1.20;;
29320;SDS011;16323;51.130;6.612;2023-05-16T19:37:49;2.50;;;1.17;;
29320;SDS011;16323;51.130;6.612;2023-05-16T19:40:16;1.63;;;0.85;;
29320;SDS011;16323;51.130;6.612;2023-05-16T19:42:42;3.63;;;1.30;;
29320;SDS011;16323;51.130;6.612;2023-05-16T19:45:09;2.53;;;1.10;;
29320;SDS011;16323;51.130;6.612;2023-05-16T19:47:36;3.40;;;1.02;;
29320;SDS011;16323;51.130;6.612;2023-05-16T19:50:04;3.20;;;0.95;;
29320;SDS011;16323;51.130;6.612;2023-05-16T19:52:31;1.77;;;0.95;;
29320;SDS011;16323;51.130;6.612;2023-05-16T19:55:00;1.85;;;1.02;;
29320;SDS011;16323;51.130;6.612;2023-05-16T19:57:27;1.77;;;1.02;;
29320;SDS011;16323;51.130;6.612;2023-05-16T19:59:54;1.77;;;0.70;;
29320;SDS011;16323;51.130;6.612;2023-05-16T20:02:21;2.63;;;1.05;;
29320;SDS011;16323;51.130;6.612;2023-05-16T20:04:47;3.50;;;1.00;;
29320;SDS011;16323;51.130;6.612;2023-05-16T20:07:14;2.50;;;1.08;;
29320;SDS011;16323;51.130;6.612;2023-05-16T20:09:41;2.90;;;0.95;;
29320;SDS011;16323;51.130;6.612;2023-05-16T20:12:09;1.83;;;0.95;;
29320;SDS011;16323;51.130;6.612;2023-05-16T20:14:36;2.85;;;1.00;;
29320;SDS011;16323;51.130;6.612;2023-05-16T20:17:03;2.20;;;1.10;;
29320;SDS011;16323;51.130;6.612;2023-05-16T20:19:30;1.90;;;0.95;;
29320;SDS011;16323;51.130;6.612;2023-05-16T20:21:57;2.67;;;0.90;;
29320;SDS011;16323;51.130;6.612;2023-05-16T20:24:24;1.38;;;0.60;;
29320;SDS011;16323;51.130;6.612;2023-05-16T20:26:50;2.88;;;0.80;;
29320;SDS011;16323;51.130;6.612;2023-05-16T20:29:18;3.22;;;1.10;;
29320;SDS011;16323;51.130;6.612;2023-05-16T20:31:45;2.33;;;0.88;;
29320;SDS011;16323;51.130;6.612;2023-05-16T20:34:12;2.28;;;1.13;;
29320;SDS011;16323;51.130;6.612;2023-05-16T20:36:38;1.45;;;0.80;;
29320;SDS011;16323;51.130;6.612;2023-05-16T20:39:05;2.00;;;0.90;;
29320;SDS011;16323;51.130;6.612;2023-05-16T20:41:33;2.20;;;0.90;;
29320;SDS011;16323;51.130;6.612;2023-05-16T20:43:59;2.15;;;0.88;;
29320;SDS011;16323;51.130;6.612;2023-05-16T20:46:28;1.35;;;0.80;;
29320;SDS011;16323;51.130;6.612;2023-05-16T20:48:54;2.10;;;1.00;;
29320;SDS011;16323;51.130;6.612;2023-05-16T20:51:21;2.00;;;0.55;;
29320;SDS011;16323;51.130;6.612;2023-05-16T20:53:48;1.05;;;0.75;;
29320;SDS011;16323;51.130;6.612;2023-05-16T20:56:14;1.92;;;1.05;;
29320;SDS011;16323;51.130;6.612;2023-05-16T20:58:41;1.40;;;0.70;;
29320;SDS011;16323;51.130;6.612;2023-05-16T21:01:08;2.20;;;0.73;;
29320;SDS011;16323;51.130;6.612;2023-05-16T21:03:36;1.33;;;0.68;;
29320;SDS011;16323;51.130;6.612;2023-05-16T21:06:03;1.45;;;0.63;;
29320;SDS011;16323;51.130;6.612;2023-05-16T21:08:30;2.25;;;0.90;;
29320;SDS011;16323;51.130;6.612;2023-05-16T21:10:56;1.52;;;0.70;;
29320;SDS011;16323;51.130;6.612;2023-05-16T21:13:23;2.03;;;0.90;;
29320;SDS011;16323;51.130;6.612;2023-05-16T21:15:50;0.95;;;0.50;;
29320;SDS011;16323;51.130;6.612;2023-05-16T21:18:17;1.48;;;0.70;;
29320;SDS011;16323;51.130;6.612;2023-05-16T21:20:45;3.60;;;0.80;;
29320;SDS011;16323;51.130;6.612;2023-05-16T21:23:12;1.50;;;0.70;;
29320;SDS011;16323;51.130;6.612;2023-05-16T21:25:38;2.38;;;0.80;;
29320;SDS011;16323;51.130;6.612;2023-05-16T21:28:06;1.77;;;0.60;;
29320;SDS011;16323;51.130;6.612;2023-05-16T21:30:32;1.65;;;0.90;;
29320;SDS011;16323;51.130;6.612;2023-05-16T21:32:59;2.20;;;0.80;;
29320;SDS011;16323;51.130;6.612;2023-05-16T21:35:26;0.77;;;0.57;;
29320;SDS011;16323;51.130;6.612;2023-05-16T21:37:55;1.20;;;0.60;;
29320;SDS011;16323;51.130;6.612;2023-05-16T21:40:21;1.25;;;0.50;;
29320;SDS011;16323;51.130;6.612;2023-05-16T21:42:49;1.50;;;0.60;;
29320;SDS011;16323;51.130;6.612;2023-05-16T21:45:16;1.67;;;0.85;;
29320;SDS011;16323;51.130;6.612;2023-05-16T21:47:44;2.17;;;0.57;;
29320;SDS011;16323;51.130;6.612;2023-05-16T21:50:11;1.35;;;0.52;;
29320;SDS011;16323;51.130;6.612;2023-05-16T21:52:38;9.10;;;1.00;;
29320;SDS011;16323;51.130;6.612;2023-05-16T21:55:07;1.13;;;0.50;;
29320;SDS011;16323;51.130;6.612;2023-05-16T21:57:34;1.10;;;0.68;;
29320;SDS011;16323;51.130;6.612;2023-05-16T22:00:01;1.85;;;0.75;;
29320;SDS011;16323;51.130;6.612;2023-05-16T22:02:30;1.60;;;0.75;;
29320;SDS011;16323;51.130;6.612;2023-05-16T22:04:57;0.98;;;0.68;;
29320;SDS011;16323;51.130;6.612;2023-05-16T22:07:24;2.83;;;0.70;;
29320;SDS011;16323;51.130;6.612;2023-05-16T22:09:53;2.00;;;0.57;;
29320;SDS011;16323;51.130;6.612;2023-05-16T22:12:21;1.45;;;0.80;;
29320;SDS011;16323;51.130;6.612;2023-05-16T22:14:48;2.15;;;0.60;;
29320;SDS011;16323;51.130;6.612;2023-05-16T22:17:15;1.13;;;0.50;;
29320;SDS011;16323;51.130;6.612;2023-05-16T22:19:42;2.30;;;0.68;;
29320;SDS011;16323;51.130;6.612;2023-05-16T22:22:09;1.30;;;0.50;;
29320;SDS011;16323;51.130;6.612;2023-05-16T22:24:36;1.42;;;0.70;;
29320;SDS011;16323;51.130;6.612;2023-05-16T22:27:04;0.75;;;0.52;;
29320;SDS011;16323;51.130;6.612;2023-05-16T22:29:32;0.80;;;0.57;;
29320;SDS011;16323;51.130;6.612;2023-05-16T22:32:02;0.90;;;0.52;;
29320;SDS011;16323;51.130;6.612;2023-05-16T22:34:31;1.45;;;0.50;;
29320;SDS011;16323;51.130;6.612;2023-05-16T22:36:57;0.98;;;0.60;;
29320;SDS011;16323;51.130;6.612;2023-05-16T22:39:24;1.95;;;0.60;;
29320;SDS011;16323;51.130;6.612;2023-05-16T22:41:51;1.30;;;0.70;;
29320;SDS011;16323;51.130;6.612;2023-05-16T22:44:17;2.33;;;0.75;;
29320;SDS011;16323;51.130;6.612;2023-05-16T22:46:46;1.38;;;0.65;;
29320;SDS011;16323;51.130;6.612;2023-05-16T22:49:12;0.77;;;0.40;;
29320;SDS011;16323;51.130;6.612;2023-05-16T22:51:40;0.80;;;0.60;;
29320;SDS011;16323;51.130;6.612;2023-05-16T22:54:07;0.88;;;0.60;;
29320;SDS011;16323;51.130;6.612;2023-05-16T22:56:33;1.13;;;0.45;;
29320;SDS011;16323;51.130;6.612;2023-05-16T22:59:00;2.35;;;0.50;;
29320;SDS011;16323;51.130;6.612;2023-05-16T23:01:27;1.50;;;0.60;;
29320;SDS011;16323;51.130;6.612;2023-05-16T23:03:55;0.60;;;0.50;;
29320;SDS011;16323;51.130;6.612;2023-05-16T23:06:22;3.10;;;0.82;;
29320;SDS011;16323;51.130;6.612;2023-05-16T23:08:48;2.75;;;0.70;;
29320;SDS011;16323;51.130;6.612;2023-05-16T23:11:15;1.73;;;0.70;;
29320;SDS011;16323;51.130;6.612;2023-05-16T23:13:43;1.00;;;0.50;;
29320;SDS011;16323;51.130;6.612;2023-05-16T23:16:10;1.98;;;0.77;;
29320;SDS011;16323;51.130;6.612;2023-05-16T23:18:37;1.13;;;0.50;;
29320;SDS011;16323;51.130;6.612;2023-05-16T23:21:05;1.08;;;0.50;;
29320;SDS011;16323;51.130;6.612;2023-05-16T23:23:32;3.28;;;0.60;;
29320;SDS011;16323;51.130;6.612;2023-05-16T23:25:58;1.88;;;0.63;;
29320;SDS011;16323;51.130;6.612;2023-05-16T23:28:25;2.00;;;0.68;;
29320;SDS011;16323;51.130;6.612;2023-05-16T23:30:52;1.95;;;0.50;;
29320;SDS011;16323;51.130;6.612;2023-05-16T23:33:19;0.55;;;0.50;;
29320;SDS011;16323;51.130;6.612;2023-05-16T23:35:45;0.40;;;0.32;;
29320;SDS011;16323;51.130;6.612;2023-05-16T23:38:13;0.93;;;0.50;;
29320;SDS011;16323;51.130;6.612;2023-05-16T23:40:40;0.98;;;0.70;;
29320;SDS011;16323;51.130;6.612;2023-05-16T23:43:07;0.55;;;0.40;;
29320;SDS011;16323;51.130;6.612;2023-05-16T23:45:34;0.70;;;0.40;;
29320;SDS011;16323;51.130;6.612;2023-05-16T23:48:01;0.95;;;0.60;;
29320;SDS011;16323;51.130;6.612;2023-05-16T23:50:28;1.55;;;0.80;;
29320;SDS011;16323;51.130;6.612;2023-05-16T23:52:56;1.00;;;0.40;;
29320;SDS011;16323;51.130;6.612;2023-05-16T23:55:24;1.55;;;0.73;;
29320;SDS011;16323;51.130;6.612;2023-05-16T23:57:50;0.98;;;0.60;;
